Time;durP1;ratioP1;P1;durP2;ratioP2;P2;SDS_P1;SDS_P2;PMS_P1;PMS_P2;Temp;Humidity;BMP_temperature;BMP_pressure;BME280_temperature;BME280_humidity;BME280_pressure;Samples;Min_cycle;Max_cycle;Signal;HPM_P1;HPM_P2
2021/09/11 00:00:43;;;;;;;11.07;9.32;;;18.20;99.90;;;;;;5014747;28;25082;-74
2021/09/11 00:03:08;;;;;;;14.48;10.18;;;18.20;99.90;;;;;;5015695;28;25087;-76
2021/09/11 00:05:35;;;;;;;19.45;10.60;;;18.10;99.90;;;;;;5005615;28;25094;-76
2021/09/11 00:08:01;;;;;;;12.80;8.93;;;18.10;99.90;;;;;;5004214;28;25069;-72
2021/09/11 00:10:27;;;;;;;15.48;9.63;;;18.00;99.90;;;;;;5008540;28;25095;-75
2021/09/11 00:12:53;;;;;;;13.52;9.27;;;18.00;99.90;;;;;;5007953;28;25073;-73
2021/09/11 00:15:19;;;;;;;11.20;8.82;;;18.00;99.90;;;;;;5007690;28;25071;-75
2021/09/11 00:17:47;;;;;;;14.20;9.90;;;17.90;99.90;;;;;;5000430;28;25068;-72
2021/09/11 00:20:13;;;;;;;12.52;8.73;;;17.90;99.90;;;;;;5002905;28;25060;-75
2021/09/11 00:22:39;;;;;;;10.95;7.93;;;17.80;99.90;;;;;;5009993;28;25068;-74
2021/09/11 00:25:06;;;;;;;12.98;7.93;;;17.90;99.90;;;;;;5007247;28;25090;-74
2021/09/11 00:27:32;;;;;;;10.85;7.90;;;17.90;99.90;;;;;;4999657;28;25055;-74
2021/09/11 00:29:58;;;;;;;13.80;7.70;;;18.00;99.90;;;;;;5005844;28;25073;-74
2021/09/11 00:32:23;;;;;;;13.60;7.63;;;18.00;99.90;;;;;;4998019;28;25071;-75
2021/09/11 00:34:49;;;;;;;11.65;7.72;;;18.00;99.90;;;;;;5010737;28;25145;-75
2021/09/11 00:37:14;;;;;;;15.07;7.60;;;18.00;99.90;;;;;;5008221;28;25113;-77
2021/09/11 00:39:40;;;;;;;15.52;7.72;;;17.90;99.90;;;;;;5001992;28;25111;-75
2021/09/11 00:42:06;;;;;;;14.32;7.32;;;17.80;99.90;;;;;;5010246;28;25151;-74
2021/09/11 00:44:31;;;;;;;14.93;7.80;;;17.80;99.90;;;;;;5011589;28;25113;-76
2021/09/11 00:46:58;;;;;;;11.02;6.60;;;17.80;99.90;;;;;;5008085;28;25051;-76
2021/09/11 00:49:23;;;;;;;13.52;6.95;;;17.70;99.90;;;;;;5006939;28;25091;-74
2021/09/11 00:51:49;;;;;;;10.70;6.78;;;17.80;99.90;;;;;;5003577;28;25098;-74
2021/09/11 00:54:15;;;;;;;10.70;6.28;;;17.80;99.90;;;;;;5008394;28;25052;-75
2021/09/11 00:56:41;;;;;;;12.77;6.38;;;17.80;99.90;;;;;;5010558;28;25062;-75
2021/09/11 00:59:07;;;;;;;11.00;6.43;;;17.90;99.90;;;;;;5010068;28;25061;-76
2021/09/11 01:01:33;;;;;;;10.75;6.68;;;17.80;99.90;;;;;;5011418;28;25068;-74
2021/09/11 01:03:58;;;;;;;18.73;7.65;;;17.90;99.90;;;;;;5010222;28;25076;-76
2021/09/11 01:06:25;;;;;;;14.70;8.75;;;17.90;99.90;;;;;;5011347;28;25066;-75
2021/09/11 01:08:52;;;;;;;12.38;8.75;;;17.90;99.90;;;;;;4997612;28;25057;-74
2021/09/11 01:11:18;;;;;;;16.08;9.98;;;17.90;99.90;;;;;;5010495;28;25057;-73
2021/09/11 01:13:44;;;;;;;15.05;9.80;;;17.90;99.90;;;;;;5015126;28;25051;-74
2021/09/11 01:16:12;;;;;;;12.93;9.77;;;17.90;99.90;;;;;;5032817;28;25095;-72
2021/09/11 01:18:37;;;;;;;14.98;9.52;;;17.90;99.90;;;;;;5014135;28;25057;-74
2021/09/11 01:21:03;;;;;;;13.57;9.82;;;17.90;99.90;;;;;;5017254;28;25163;-75
2021/09/11 01:23:30;;;;;;;16.63;9.98;;;17.90;99.90;;;;;;5009991;28;25160;-73
2021/09/11 01:25:56;;;;;;;12.55;9.52;;;17.90;99.90;;;;;;5004470;28;25083;-75
2021/09/11 01:28:22;;;;;;;15.57;9.82;;;17.90;99.90;;;;;;5008843;28;25078;-76
2021/09/11 01:30:49;;;;;;;14.18;10.23;;;18.00;99.90;;;;;;5012750;28;25148;-74
2021/09/11 01:33:15;;;;;;;16.25;10.23;;;18.00;99.90;;;;;;5024967;28;25105;-74
2021/09/11 01:35:42;;;;;;;18.85;11.43;;;18.00;99.90;;;;;;5024884;28;25078;-74
2021/09/11 01:38:08;;;;;;;21.73;11.20;;;18.00;99.90;;;;;;5034346;28;25081;-74
2021/09/11 01:40:34;;;;;;;14.13;11.23;;;18.00;99.90;;;;;;5020706;28;25110;-74
2021/09/11 01:43:00;;;;;;;13.82;10.85;;;18.00;99.90;;;;;;5002800;28;25051;-73
2021/09/11 01:45:26;;;;;;;13.88;10.55;;;17.90;99.90;;;;;;5016270;28;25054;-74
2021/09/11 01:47:51;;;;;;;20.58;12.23;;;18.00;99.90;;;;;;5013230;28;25078;-74
2021/09/11 01:50:21;;;;;;;17.58;11.98;;;18.00;99.90;;;;;;5010626;28;25076;-74
2021/09/11 01:52:48;;;;;;;19.10;11.98;;;17.90;99.90;;;;;;5009189;28;25095;-75
2021/09/11 01:55:15;;;;;;;26.02;13.50;;;17.90;99.90;;;;;;5010611;28;25056;-75
2021/09/11 01:57:42;;;;;;;23.33;13.50;;;18.00;99.90;;;;;;5010557;28;25062;-75
2021/09/11 02:00:13;;;;;;;23.08;13.32;;;17.90;99.90;;;;;;5010951;28;25071;-74
2021/09/11 02:02:39;;;;;;;18.98;14.00;;;17.90;99.90;;;;;;5000444;28;25156;-73
2021/09/11 02:05:07;;;;;;;18.45;13.48;;;18.00;99.90;;;;;;5011475;28;25067;-74
2021/09/11 02:07:33;;;;;;;23.65;14.23;;;18.00;99.90;;;;;;5008175;28;25087;-74
2021/09/11 02:10:00;;;;;;;19.52;13.77;;;17.90;99.90;;;;;;5011768;28;25094;-75
2021/09/11 02:12:26;;;;;;;21.70;13.32;;;17.90;99.90;;;;;;5011788;28;25069;-75
2021/09/11 02:14:51;;;;;;;22.45;14.45;;;17.90;99.90;;;;;;5012421;28;25068;-74
2021/09/11 02:17:17;;;;;;;24.95;14.70;;;17.90;99.90;;;;;;5010893;28;25161;-75
2021/09/11 02:19:43;;;;;;;21.20;13.23;;;18.00;99.90;;;;;;5008997;28;25062;-74
2021/09/11 02:22:10;;;;;;;25.30;13.38;;;17.90;99.90;;;;;;5003659;28;25058;-75
2021/09/11 02:24:37;;;;;;;17.17;12.88;;;17.90;99.90;;;;;;5006354;28;25127;-74
2021/09/11 02:27:04;;;;;;;24.50;14.00;;;17.90;99.90;;;;;;5001329;28;25059;-75
2021/09/11 02:29:29;;;;;;;20.88;13.23;;;17.90;99.90;;;;;;4999783;28;25067;-74
2021/09/11 02:31:55;;;;;;;23.58;14.48;;;17.90;99.90;;;;;;5007229;28;25147;-74
2021/09/11 02:34:21;;;;;;;22.77;13.80;;;17.90;99.90;;;;;;5010916;28;25160;-75
2021/09/11 02:36:46;;;;;;;24.40;13.57;;;18.00;99.90;;;;;;5000432;28;25184;-75
2021/09/11 02:39:12;;;;;;;21.58;13.63;;;18.00;99.90;;;;;;5000293;28;25061;-74
2021/09/11 02:41:37;;;;;;;22.75;14.15;;;18.00;99.90;;;;;;5003541;28;25055;-75
2021/09/11 02:44:04;;;;;;;21.83;13.90;;;18.00;99.90;;;;;;5004058;28;25075;-74
2021/09/11 02:46:30;;;;;;;22.63;13.52;;;18.00;99.90;;;;;;5005708;28;25153;-75
2021/09/11 02:48:57;;;;;;;20.23;13.70;;;18.00;99.90;;;;;;5007280;28;25078;-76
2021/09/11 02:51:23;;;;;;;27.20;14.18;;;17.90;99.90;;;;;;5013279;28;25077;-73
2021/09/11 02:53:49;;;;;;;22.13;13.57;;;17.80;99.90;;;;;;5010353;28;25084;-73
2021/09/11 02:56:15;;;;;;;21.33;13.77;;;17.90;99.90;;;;;;5009096;28;25069;-75
2021/09/11 02:58:40;;;;;;;20.25;13.07;;;17.90;99.90;;;;;;5008122;28;25077;-75
2021/09/11 03:01:06;;;;;;;21.80;13.40;;;18.00;99.90;;;;;;5004817;28;25061;-75
2021/09/11 03:03:31;;;;;;;28.30;14.75;;;18.00;99.90;;;;;;5009686;28;25096;-74
2021/09/11 03:05:57;;;;;;;22.95;14.68;;;18.00;99.90;;;;;;5006354;28;25051;-74
2021/09/11 03:08:22;;;;;;;23.55;14.70;;;18.00;99.90;;;;;;5009755;28;25111;-74
2021/09/11 03:10:48;;;;;;;29.42;14.02;;;18.00;99.90;;;;;;5008350;28;25115;-74
2021/09/11 03:13:14;;;;;;;23.05;14.40;;;17.90;99.90;;;;;;5007139;28;25086;-75
2021/09/11 03:15:40;;;;;;;23.40;15.60;;;17.80;99.90;;;;;;5008562;28;25062;-75
2021/09/11 03:18:05;;;;;;;22.15;15.77;;;17.80;99.90;;;;;;5005346;28;25027;-75
2021/09/11 03:20:31;;;;;;;22.65;15.27;;;17.80;99.90;;;;;;5003651;28;25159;-75
2021/09/11 03:22:57;;;;;;;22.20;14.32;;;17.80;99.90;;;;;;5009598;28;25053;-74
2021/09/11 03:25:22;;;;;;;22.10;13.93;;;17.90;99.90;;;;;;5007887;28;25138;-74
2021/09/11 03:27:48;;;;;;;23.65;14.30;;;17.90;99.90;;;;;;5002540;28;25078;-74
2021/09/11 03:30:14;;;;;;;26.95;13.98;;;17.90;99.90;;;;;;5008242;28;24896;-75
2021/09/11 03:32:40;;;;;;;23.30;14.57;;;17.90;99.90;;;;;;5008998;28;25069;-75
2021/09/11 03:35:06;;;;;;;23.70;14.70;;;17.90;99.90;;;;;;5009351;28;25134;-72
2021/09/11 03:37:32;;;;;;;19.52;13.73;;;17.80;99.90;;;;;;5002718;28;25057;-75
2021/09/11 03:39:58;;;;;;;25.80;13.73;;;17.80;99.90;;;;;;5006019;28;25057;-75
2021/09/11 03:42:23;;;;;;;20.05;11.65;;;17.70;99.90;;;;;;5001646;28;25107;-75
2021/09/11 03:44:49;;;;;;;21.17;12.38;;;17.70;99.90;;;;;;5000684;28;25063;-75
2021/09/11 03:47:14;;;;;;;30.15;12.70;;;17.80;99.90;;;;;;5000929;28;25063;-74
2021/09/11 03:49:40;;;;;;;21.92;12.23;;;17.80;99.90;;;;;;4995556;28;25051;-74
2021/09/11 03:52:06;;;;;;;20.98;12.75;;;17.80;99.90;;;;;;5001782;28;25074;-74
2021/09/11 03:54:31;;;;;;;28.40;14.65;;;17.80;99.90;;;;;;5002284;28;25174;-74
2021/09/11 03:56:57;;;;;;;18.92;13.15;;;17.80;99.90;;;;;;4998307;28;25074;-75
2021/09/11 03:59:23;;;;;;;26.33;16.83;;;17.80;99.90;;;;;;4996469;28;25049;-75
2021/09/11 04:01:48;;;;;;;30.33;15.38;;;17.70;99.90;;;;;;5005054;28;25139;-74
2021/09/11 04:04:14;;;;;;;27.10;15.25;;;17.70;99.90;;;;;;4997905;28;25076;-73
2021/09/11 04:06:39;;;;;;;22.50;15.35;;;17.70;99.90;;;;;;5004527;28;25096;-73
2021/09/11 04:09:05;;;;;;;24.60;14.70;;;17.80;99.90;;;;;;5009038;28;25060;-76
2021/09/11 04:11:30;;;;;;;28.35;16.58;;;17.90;99.90;;;;;;5011544;28;25097;-74
2021/09/11 04:13:56;;;;;;;28.27;15.82;;;17.70;99.90;;;;;;5003358;28;25067;-75
2021/09/11 04:16:22;;;;;;;30.23;16.65;;;17.60;99.90;;;;;;5001145;28;25073;-75
2021/09/11 04:18:47;;;;;;;27.30;16.65;;;17.70;99.90;;;;;;5010399;28;25079;-75
2021/09/11 04:21:13;;;;;;;29.15;17.63;;;17.70;99.90;;;;;;5008336;28;25149;-74
2021/09/11 04:23:38;;;;;;;28.08;17.23;;;17.70;99.90;;;;;;5006937;28;25071;-74
2021/09/11 04:26:04;;;;;;;26.80;17.98;;;17.60;99.90;;;;;;5005067;28;25069;-74
2021/09/11 04:28:30;;;;;;;29.67;18.08;;;17.60;99.90;;;;;;5001906;28;25154;-76
2021/09/11 04:30:55;;;;;;;32.78;18.55;;;17.50;99.90;;;;;;5009729;28;25099;-75
2021/09/11 04:33:21;;;;;;;27.50;16.85;;;17.50;99.90;;;;;;5010022;28;25093;-76
2021/09/11 04:35:47;;;;;;;30.10;16.25;;;17.50;99.90;;;;;;5009986;28;25110;-75
2021/09/11 04:38:12;;;;;;;31.25;17.48;;;17.40;99.90;;;;;;5011783;28;25077;-76
2021/09/11 04:40:38;;;;;;;24.60;15.93;;;17.50;99.90;;;;;;5000763;28;25159;-75
2021/09/11 04:43:07;;;;;;;30.75;17.25;;;17.40;99.90;;;;;;5007639;28;25081;-74
2021/09/11 04:45:33;;;;;;;25.30;15.48;;;17.50;99.90;;;;;;5000005;28;25071;-74
2021/09/11 04:47:58;;;;;;;29.90;14.85;;;17.50;99.90;;;;;;4999221;28;25074;-75
2021/09/11 04:50:24;;;;;;;25.88;15.30;;;17.50;99.90;;;;;;5004018;28;25072;-74
2021/09/11 04:52:49;;;;;;;30.02;15.68;;;17.50;99.90;;;;;;5003660;28;25078;-75
2021/09/11 04:55:16;;;;;;;26.73;14.55;;;17.60;99.90;;;;;;5004393;28;25084;-76
2021/09/11 04:57:42;;;;;;;27.48;17.05;;;17.50;99.90;;;;;;5004287;28;25064;-76
2021/09/11 05:00:08;;;;;;;26.30;16.67;;;17.50;99.90;;;;;;5001478;28;25075;-74
2021/09/11 05:02:33;;;;;;;30.30;16.90;;;17.50;99.90;;;;;;5006357;28;25063;-75
2021/09/11 05:04:59;;;;;;;29.40;17.38;;;17.50;99.90;;;;;;5018537;28;25051;-75
2021/09/11 05:07:25;;;;;;;28.67;16.80;;;17.50;99.90;;;;;;5027707;28;25108;-74
2021/09/11 05:09:52;;;;;;;26.80;18.05;;;17.50;99.90;;;;;;5027686;28;25087;-76
2021/09/11 05:12:18;;;;;;;32.58;17.75;;;17.50;99.90;;;;;;5009185;28;25079;-75
2021/09/11 05:14:43;;;;;;;29.55;17.90;;;17.50;99.90;;;;;;5008238;28;25068;-75
2021/09/11 05:17:09;;;;;;;30.33;17.65;;;17.40;99.90;;;;;;5008595;28;25133;-74
2021/09/11 05:19:34;;;;;;;28.83;18.80;;;17.40;99.90;;;;;;5007625;28;25111;-76
2021/09/11 05:22:00;;;;;;;28.25;16.92;;;17.40;99.90;;;;;;5004230;28;25120;-75
2021/09/11 05:24:26;;;;;;;29.70;17.77;;;17.50;99.90;;;;;;5010603;28;25081;-74
2021/09/11 05:26:51;;;;;;;30.10;19.27;;;17.50;99.90;;;;;;5005809;28;25080;-75
2021/09/11 05:29:17;;;;;;;29.85;17.50;;;17.50;99.90;;;;;;5010040;28;25067;-77
2021/09/11 05:31:43;;;;;;;29.88;16.83;;;17.60;99.90;;;;;;5009068;28;25158;-74
2021/09/11 05:34:08;;;;;;;22.67;16.83;;;17.60;99.90;;;;;;5006806;28;25137;-76
2021/09/11 05:36:34;;;;;;;28.20;16.38;;;17.60;99.90;;;;;;5009964;28;25072;-74
2021/09/11 05:39:01;;;;;;;27.08;16.10;;;17.60;99.90;;;;;;5006790;28;25156;-76
2021/09/11 05:41:27;;;;;;;25.48;16.27;;;17.70;99.90;;;;;;5010497;28;25076;-75
2021/09/11 05:43:53;;;;;;;28.15;15.75;;;17.70;99.90;;;;;;5008239;28;25093;-76
2021/09/11 05:46:19;;;;;;;25.38;14.93;;;17.70;99.90;;;;;;5006213;28;25074;-75
2021/09/11 05:48:45;;;;;;;31.75;16.67;;;17.80;99.90;;;;;;5009041;28;25053;-75
2021/09/11 05:51:10;;;;;;;32.58;16.63;;;17.70;99.90;;;;;;5011272;28;25134;-75
2021/09/11 05:53:36;;;;;;;28.27;15.63;;;17.70;99.90;;;;;;5008596;28;25078;-75
2021/09/11 05:56:02;;;;;;;28.83;16.15;;;17.60;99.90;;;;;;5007579;28;25072;-74
2021/09/11 05:58:29;;;;;;;34.38;16.35;;;17.60;99.90;;;;;;5000623;28;25135;-74
2021/09/11 06:00:55;;;;;;;23.40;14.95;;;17.60;99.90;;;;;;4995882;28;25148;-74
2021/09/11 06:03:21;;;;;;;31.60;15.63;;;17.60;99.90;;;;;;4995496;28;25068;-74
2021/09/11 06:05:46;;;;;;;24.25;15.88;;;17.70;99.90;;;;;;4995940;28;25133;-73
2021/09/11 06:08:12;;;;;;;27.17;14.70;;;17.70;99.90;;;;;;5000073;28;25072;-73
2021/09/11 06:10:43;;;;;;;21.77;14.95;;;17.80;99.90;;;;;;5005761;28;25052;-74
2021/09/11 06:13:08;;;;;;;23.70;13.98;;;17.80;99.90;;;;;;4995767;28;25067;-74
2021/09/11 06:15:34;;;;;;;23.23;14.50;;;17.70;99.90;;;;;;4996301;28;25149;-74
2021/09/11 06:18:00;;;;;;;26.83;14.25;;;17.70;99.90;;;;;;4996473;28;25060;-77
2021/09/11 06:20:26;;;;;;;22.33;13.48;;;17.70;99.90;;;;;;4995562;28;25068;-74
2021/09/11 06:22:51;;;;;;;21.75;13.68;;;17.70;99.90;;;;;;5002310;28;25206;-75
2021/09/11 06:25:17;;;;;;;23.42;14.38;;;17.70;99.90;;;;;;4996443;28;25088;-72
2021/09/11 06:27:43;;;;;;;23.27;14.43;;;17.70;99.90;;;;;;5002635;28;25058;-74
2021/09/11 06:30:13;;;;;;;22.63;15.57;;;17.70;99.90;;;;;;5008025;28;25044;-73
2021/09/11 06:32:44;;;;;;;20.80;14.10;;;17.70;99.90;;;;;;5023572;28;25047;-74
2021/09/11 06:35:10;;;;;;;22.17;13.63;;;17.70;99.90;;;;;;5026338;28;25089;-74
2021/09/11 06:37:37;;;;;;;21.05;14.35;;;17.70;99.90;;;;;;5018584;28;25075;-75
2021/09/11 06:40:03;;;;;;;21.17;14.10;;;17.70;99.90;;;;;;5006591;28;25056;-73
2021/09/11 06:42:28;;;;;;;23.38;14.93;;;17.70;99.90;;;;;;5003993;28;25071;-75
2021/09/11 06:44:54;;;;;;;24.38;15.23;;;17.80;99.90;;;;;;5006881;28;25076;-74
2021/09/11 06:47:20;;;;;;;27.85;15.43;;;17.90;99.90;;;;;;5004516;28;25071;-73
2021/09/11 06:49:45;;;;;;;25.30;15.50;;;18.00;99.90;;;;;;4998766;28;25064;-74
2021/09/11 06:52:11;;;;;;;25.67;15.32;;;18.00;99.90;;;;;;5005564;28;25119;-73
2021/09/11 06:54:38;;;;;;;25.80;15.55;;;17.90;99.90;;;;;;5000296;28;25105;-76
2021/09/11 06:57:04;;;;;;;28.92;16.83;;;17.90;99.90;;;;;;5006051;28;25146;-74
2021/09/11 06:59:29;;;;;;;27.95;16.95;;;18.00;99.90;;;;;;5003814;28;25074;-72
2021/09/11 07:01:56;;;;;;;29.27;16.67;;;18.10;99.90;;;;;;4997529;28;25079;-77
2021/09/11 07:04:23;;;;;;;23.13;15.52;;;18.10;99.90;;;;;;5003667;28;25072;-72
2021/09/11 07:06:49;;;;;;;27.63;16.23;;;18.10;99.90;;;;;;5009028;28;25162;-74
2021/09/11 07:09:15;;;;;;;25.30;16.33;;;18.10;99.90;;;;;;5009178;28;25075;-74
2021/09/11 07:11:41;;;;;;;26.52;15.88;;;18.00;99.90;;;;;;5008875;28;25094;-74
2021/09/11 07:14:06;;;;;;;24.50;15.77;;;18.10;99.90;;;;;;5010105;28;25054;-74
2021/09/11 07:16:32;;;;;;;30.70;16.17;;;18.10;99.90;;;;;;5000086;28;25099;-74
2021/09/11 07:18:58;;;;;;;30.80;17.15;;;18.20;99.90;;;;;;4995989;28;25070;-74
2021/09/11 07:21:23;;;;;;;24.98;16.20;;;18.20;99.90;;;;;;4992088;28;25063;-74
2021/09/11 07:23:49;;;;;;;22.95;15.27;;;18.20;99.90;;;;;;5005866;28;25060;-73
2021/09/11 07:26:21;;;;;;;24.70;16.10;;;18.10;99.90;;;;;;5008708;28;25149;-75
2021/09/11 07:28:47;;;;;;;27.45;16.50;;;18.20;99.90;;;;;;5003570;28;25126;-75
2021/09/11 07:31:13;;;;;;;28.75;17.05;;;18.20;99.90;;;;;;4996996;28;25067;-74
2021/09/11 07:33:39;;;;;;;26.00;18.05;;;18.10;99.90;;;;;;4992993;28;25085;-73
2021/09/11 07:36:06;;;;;;;28.25;16.67;;;18.10;99.90;;;;;;5004993;28;25180;-75
2021/09/11 07:38:33;;;;;;;24.67;15.75;;;18.10;99.90;;;;;;5001871;28;25145;-74
2021/09/11 07:40:58;;;;;;;23.85;17.08;;;18.30;99.90;;;;;;5006224;28;25147;-73
2021/09/11 07:43:24;;;;;;;28.95;17.23;;;18.40;99.90;;;;;;5003982;28;25064;-74
2021/09/11 07:45:49;;;;;;;29.17;16.98;;;18.30;99.90;;;;;;5006494;28;25062;-74
2021/09/11 07:48:15;;;;;;;27.30;17.25;;;18.40;99.90;;;;;;5007513;28;25144;-73
2021/09/11 07:50:41;;;;;;;34.50;18.60;;;18.30;99.90;;;;;;5011863;28;25059;-75
2021/09/11 07:53:06;;;;;;;29.55;16.95;;;18.20;99.90;;;;;;5012438;28;25079;-75
2021/09/11 07:55:33;;;;;;;27.15;18.33;;;18.20;99.90;;;;;;5012265;28;25140;-73
2021/09/11 07:57:59;;;;;;;28.13;17.70;;;18.20;99.90;;;;;;5011625;28;25070;-74
2021/09/11 08:00:26;;;;;;;28.98;17.35;;;18.20;99.90;;;;;;5005899;28;25075;-74
2021/09/11 08:02:51;;;;;;;30.38;17.10;;;18.30;99.90;;;;;;5012797;28;25085;-74
2021/09/11 08:05:17;;;;;;;26.77;18.00;;;18.30;99.90;;;;;;5005394;28;25146;-73
2021/09/11 08:07:42;;;;;;;25.73;16.52;;;18.40;99.90;;;;;;5005273;28;25159;-75
2021/09/11 08:10:09;;;;;;;32.92;18.10;;;18.50;99.90;;;;;;5005534;28;25073;-74
2021/09/11 08:12:35;;;;;;;27.70;16.48;;;18.50;99.90;;;;;;5003398;28;25085;-75
2021/09/11 08:15:02;;;;;;;29.00;17.00;;;18.60;99.90;;;;;;5011428;28;25066;-74
2021/09/11 08:17:27;;;;;;;23.02;17.75;;;18.60;99.90;;;;;;5004883;28;25156;-75
2021/09/11 08:19:53;;;;;;;29.88;16.88;;;18.50;99.90;;;;;;5010420;28;25081;-74
2021/09/11 08:22:19;;;;;;;28.73;15.82;;;18.50;99.90;;;;;;5004456;28;25077;-72
2021/09/11 08:24:44;;;;;;;29.40;16.98;;;18.60;99.90;;;;;;5000003;28;25058;-73
2021/09/11 08:27:10;;;;;;;27.65;18.27;;;18.60;99.90;;;;;;5005703;28;25091;-76
2021/09/11 08:29:35;;;;;;;28.98;16.13;;;18.70;99.90;;;;;;5009120;28;25092;-73
2021/09/11 08:32:03;;;;;;;27.33;16.00;;;18.70;99.90;;;;;;5010083;28;25065;-74
2021/09/11 08:34:28;;;;;;;26.35;16.02;;;18.80;99.90;;;;;;5006265;28;25075;-73
2021/09/11 08:36:54;;;;;;;27.63;16.70;;;18.90;99.90;;;;;;5009562;28;25068;-73
2021/09/11 08:39:24;;;;;;;28.20;17.02;;;18.90;99.90;;;;;;5012657;28;25064;-74
2021/09/11 08:41:50;;;;;;;28.30;15.88;;;19.00;99.90;;;;;;5010851;28;25133;-73
2021/09/11 08:44:16;;;;;;;25.75;18.10;;;19.10;99.90;;;;;;5010318;28;25059;-75
2021/09/11 08:46:42;;;;;;;26.05;16.20;;;19.00;99.90;;;;;;5013478;28;25066;-74
2021/09/11 08:49:10;;;;;;;28.33;16.95;;;18.90;99.90;;;;;;5011344;28;25081;-74
2021/09/11 08:51:36;;;;;;;28.70;17.45;;;18.90;99.90;;;;;;5030110;28;25067;-74
2021/09/11 08:54:03;;;;;;;33.15;18.25;;;19.00;99.90;;;;;;5033213;28;25068;-78
2021/09/11 08:56:44;;;;;;;28.45;17.35;;;19.00;99.90;;;;;;5023789;28;25149;-75
2021/09/11 08:59:15;;;;;;;28.13;17.77;;;19.10;99.90;;;;;;5026690;28;25070;-75
2021/09/11 09:01:41;;;;;;;25.85;17.58;;;19.10;99.90;;;;;;5015918;28;25071;-76
2021/09/11 09:04:07;;;;;;;29.77;18.80;;;19.20;99.90;;;;;;5012656;28;25070;-76
2021/09/11 09:06:34;;;;;;;24.70;16.55;;;19.20;99.90;;;;;;5014917;28;25098;-73
2021/09/11 09:09:11;;;;;;;28.88;18.30;;;19.30;99.90;;;;;;5006154;28;25082;-74
2021/09/11 09:11:45;;;;;;;35.55;18.20;;;19.30;99.90;;;;;;5002362;28;25076;-75
2021/09/11 09:14:18;;;;;;;30.35;18.02;;;19.40;99.90;;;;;;5008092;28;25127;-75
2021/09/11 09:16:47;;;;;;;28.15;17.80;;;19.40;99.90;;;;;;5007348;28;25089;-73
2021/09/11 09:19:18;;;;;;;31.65;17.08;;;19.40;99.90;;;;;;5007459;28;25075;-74
2021/09/11 09:21:46;;;;;;;33.45;18.30;;;19.50;99.90;;;;;;5005754;28;25063;-75
2021/09/11 09:24:13;;;;;;;29.80;19.05;;;19.60;99.90;;;;;;5011749;28;25061;-74
2021/09/11 09:26:51;;;;;;;31.02;18.50;;;19.50;99.90;;;;;;5006058;28;25086;-75
2021/09/11 09:29:18;;;;;;;34.92;20.13;;;19.50;99.90;;;;;;5008999;28;25071;-73
2021/09/11 09:31:49;;;;;;;26.40;19.42;;;19.60;99.90;;;;;;5008066;28;25054;-73
2021/09/11 09:34:48;;;;;;;26.90;19.13;;;19.60;99.90;;;;;;5000377;28;25072;-74
2021/09/11 09:37:15;;;;;;;31.60;18.05;;;19.60;99.90;;;;;;5009677;28;25078;-74
2021/09/11 09:39:46;;;;;;;30.75;18.67;;;19.60;99.90;;;;;;5005526;28;25084;-74
2021/09/11 09:42:14;;;;;;;30.65;19.50;;;19.60;99.90;;;;;;5012629;28;25065;-73
2021/09/11 09:44:42;;;;;;;33.03;20.63;;;19.60;99.90;;;;;;5032851;28;25079;-73
2021/09/11 09:47:18;;;;;;;40.22;22.10;;;19.40;99.90;;;;;;5032794;28;25059;-76
2021/09/11 09:50:03;;;;;;;34.83;22.08;;;19.40;99.90;;;;;;5023640;28;25067;-74
2021/09/11 09:52:30;;;;;;;43.03;22.48;;;19.30;99.90;;;;;;5016982;28;25058;-73
2021/09/11 09:54:57;;;;;;;33.97;23.70;;;19.30;99.90;;;;;;5019181;28;25112;-74
2021/09/11 09:57:24;;;;;;;40.10;23.77;;;19.00;99.90;;;;;;5010150;28;25053;-74
2021/09/11 09:59:51;;;;;;;27.33;20.77;;;19.00;99.90;;;;;;5001742;28;25074;-73
2021/09/11 10:02:17;;;;;;;28.27;18.40;;;19.00;99.90;;;;;;5000403;28;25122;-74
2021/09/11 10:04:43;;;;;;;24.17;16.92;;;19.00;99.90;;;;;;4998240;28;25129;-75
2021/09/11 10:07:09;;;;;;;22.05;15.75;;;18.90;99.90;;;;;;5004444;28;25081;-78
2021/09/11 10:09:36;;;;;;;17.80;13.23;;;18.80;99.90;;;;;;5016224;28;25108;-77
2021/09/11 10:12:03;;;;;;;22.17;15.02;;;18.90;99.90;;;;;;5022334;28;25153;-75
2021/09/11 10:14:33;;;;;;;21.85;14.32;;;19.10;99.90;;;;;;5006759;28;25103;-75
2021/09/11 10:17:04;;;;;;;19.92;13.88;;;19.20;99.90;;;;;;5000321;28;25075;-76
2021/09/11 10:19:32;;;;;;;15.10;13.50;;;19.30;99.90;;;;;;5002927;28;25198;-76
2021/09/11 10:22:25;;;;;;;19.83;13.05;;;19.30;99.90;;;;;;4994098;28;25086;-74
2021/09/11 10:25:02;;;;;;;15.65;13.73;;;19.50;99.90;;;;;;4995981;28;25070;-75
2021/09/11 10:27:36;;;;;;;12.90;11.50;;;19.50;99.90;;;;;;5000872;28;25061;-75
2021/09/11 10:30:07;;;;;;;14.77;12.90;;;19.50;99.90;;;;;;4995324;28;25068;-77
2021/09/11 10:32:41;;;;;;;16.17;12.23;;;19.60;99.90;;;;;;5000658;28;25076;-76
2021/09/11 10:35:20;;;;;;;13.80;12.40;;;19.80;99.90;;;;;;5004877;28;25073;-75
2021/09/11 10:37:54;;;;;;;17.00;11.95;;;19.90;99.90;;;;;;4999849;28;25145;-74
2021/09/11 10:40:24;;;;;;;14.80;11.80;;;19.80;99.90;;;;;;4996310;28;25119;-74
2021/09/11 10:43:05;;;;;;;17.63;12.20;;;19.90;99.90;;;;;;5002205;28;25054;-73
2021/09/11 10:45:54;;;;;;;15.07;12.57;;;19.90;99.90;;;;;;5002345;28;25116;-76
2021/09/11 10:48:33;;;;;;;14.52;12.02;;;20.10;99.90;;;;;;5000318;28;25043;-75
2021/09/11 10:51:29;;;;;;;14.85;13.35;;;20.20;99.90;;;;;;4996589;28;25073;-76
2021/09/11 10:53:58;;;;;;;22.48;16.83;;;20.30;99.90;;;;;;5001963;28;25120;-74
2021/09/11 10:56:29;;;;;;;18.35;15.52;;;20.30;99.90;;;;;;5000353;28;25104;-74
2021/09/11 10:59:13;;;;;;;18.90;16.75;;;20.20;99.90;;;;;;5012978;28;25062;-76
2021/09/11 11:02:03;;;;;;;19.83;16.40;;;20.20;99.90;;;;;;5007223;28;25051;-75
2021/09/11 11:04:38;;;;;;;20.55;15.75;;;20.10;99.90;;;;;;5002064;28;25074;-73
2021/09/11 11:07:09;;;;;;;20.17;15.73;;;20.20;99.90;;;;;;4995362;28;25075;-75
2021/09/11 11:09:40;;;;;;;20.70;15.23;;;20.20;99.90;;;;;;4999944;28;25093;-76
2021/09/11 11:12:08;;;;;;;16.90;14.63;;;20.30;99.90;;;;;;5008197;28;25080;-77
2021/09/11 11:14:38;;;;;;;21.17;14.88;;;20.50;99.90;;;;;;5003359;28;25060;-75
2021/09/11 11:17:04;;;;;;;21.40;15.77;;;20.60;99.90;;;;;;5001541;28;25149;-74
2021/09/11 11:19:31;;;;;;;19.45;14.48;;;20.50;99.90;;;;;;5003522;28;25057;-76
2021/09/11 11:22:07;;;;;;;21.33;15.00;;;20.50;99.90;;;;;;5014375;28;25081;-77
2021/09/11 11:24:35;;;;;;;20.85;15.18;;;20.70;99.90;;;;;;5020090;28;25062;-75
2021/09/11 11:27:10;;;;;;;18.20;14.02;;;21.00;99.90;;;;;;5016558;28;25066;-75
2021/09/11 11:29:43;;;;;;;17.38;13.77;;;21.10;99.90;;;;;;5001874;28;25163;-74
2021/09/11 11:32:09;;;;;;;15.45;12.35;;;21.10;99.90;;;;;;5014616;28;25136;-75
2021/09/11 11:34:37;;;;;;;16.83;13.07;;;21.10;99.90;;;;;;5013507;28;25099;-75
2021/09/11 11:37:06;;;;;;;15.27;13.35;;;21.00;99.90;;;;;;5007511;28;25074;-72
2021/09/11 11:39:44;;;;;;;17.10;12.80;;;21.20;99.90;;;;;;4999313;28;25051;-75
2021/09/11 11:42:12;;;;;;;17.42;13.32;;;21.40;99.90;;;;;;5002739;28;25126;-74
2021/09/11 11:45:01;;;;;;;13.15;11.68;;;21.20;99.90;;;;;;5001780;28;25159;-75
2021/09/11 11:48:00;;;;;;;20.80;12.25;;;20.90;99.90;;;;;;5001864;28;25065;-75
2021/09/11 11:50:34;;;;;;;16.80;13.27;;;20.90;99.90;;;;;;5000169;28;25057;-76
2021/09/11 11:53:19;;;;;;;14.07;12.27;;;20.90;99.90;;;;;;4999408;28;25060;-76
2021/09/11 11:55:53;;;;;;;17.38;14.15;;;20.90;99.90;;;;;;4996778;28;25060;-74
2021/09/11 11:58:20;;;;;;;14.40;12.93;;;20.90;99.90;;;;;;5001631;28;25076;-75
2021/09/11 12:00:49;;;;;;;20.30;16.27;;;20.80;99.90;;;;;;4999699;28;25062;-75
2021/09/11 12:03:35;;;;;;;21.77;18.45;;;20.70;99.90;;;;;;5016793;28;25065;-74
2021/09/11 12:06:02;;;;;;;25.90;20.45;;;20.30;99.90;;;;;;5003279;28;25073;-74
2021/09/11 12:08:37;;;;;;;26.42;21.35;;;20.20;99.90;;;;;;5000022;28;24930;-76
2021/09/11 12:11:04;;;;;;;32.13;22.95;;;20.10;99.90;;;;;;4998337;28;25084;-77
2021/09/11 12:13:30;;;;;;;32.30;22.40;;;20.00;99.90;;;;;;4998475;28;25064;-73
2021/09/11 12:15:56;;;;;;;46.88;26.60;;;19.90;99.90;;;;;;4999975;28;25070;-75
2021/09/11 12:18:22;;;;;;;33.33;26.00;;;19.70;99.90;;;;;;4999816;28;25068;-75
2021/09/11 12:20:52;;;;;;;33.05;22.55;;;19.40;99.90;;;;;;4999123;28;25150;-73
2021/09/11 12:23:27;;;;;;;38.33;26.58;;;19.40;99.90;;;;;;5000087;28;25053;-73
2021/09/11 12:26:09;;;;;;;42.25;28.45;;;19.50;99.90;;;;;;5004351;28;25047;-73
2021/09/11 12:29:02;;;;;;;33.53;24.80;;;19.60;99.90;;;;;;4994704;28;25075;-73
2021/09/11 12:31:29;;;;;;;28.02;21.40;;;19.50;99.90;;;;;;5005076;28;25149;-74